createdAt,value
2023-08-12T00:01:12.934Z,18.00
2023-08-12T00:03:40.100Z,17.90
2023-08-12T00:06:07.394Z,17.90
2023-08-12T00:08:34.576Z,17.90
2023-08-12T00:11:01.700Z,17.90
2023-08-12T00:13:28.815Z,17.90
2023-08-12T00:15:55.959Z,17.90
2023-08-12T00:18:23.953Z,17.90
2023-08-12T00:20:51.606Z,17.90
2023-08-12T00:23:18.899Z,17.90
2023-08-12T00:25:45.949Z,17.80
2023-08-12T00:28:14.061Z,17.80
2023-08-12T00:30:41.237Z,17.80
2023-08-12T00:33:08.428Z,17.70
2023-08-12T00:35:35.491Z,17.70
2023-08-12T00:38:02.631Z,17.70
2023-08-12T00:40:29.754Z,17.70
2023-08-12T00:42:56.827Z,17.70
2023-08-12T00:45:23.868Z,17.70
2023-08-12T00:47:51.092Z,17.70
2023-08-12T00:50:18.288Z,17.70
2023-08-12T00:52:45.908Z,17.70
2023-08-12T00:55:13.152Z,17.70
2023-08-12T00:57:40.348Z,17.70
2023-08-12T01:00:09.270Z,17.60
2023-08-12T01:02:36.762Z,17.60
2023-08-12T01:05:04.132Z,17.60
2023-08-12T01:07:31.378Z,17.60
2023-08-12T01:09:58.405Z,17.50
2023-08-12T01:12:33.292Z,17.40
2023-08-12T01:15:12.150Z,17.40
2023-08-12T01:17:41.697Z,17.40
2023-08-12T01:20:09.888Z,17.30
2023-08-12T01:22:42.287Z,17.40
2023-08-12T01:25:10.436Z,17.40
2023-08-12T01:27:37.998Z,17.40
2023-08-12T01:30:06.940Z,17.40
2023-08-12T01:32:41.272Z,17.30
2023-08-12T01:35:26.395Z,17.30
2023-08-12T01:37:54.841Z,17.30
2023-08-12T01:40:22.610Z,17.30
2023-08-12T01:42:50.854Z,17.30
2023-08-12T01:45:20.170Z,17.30
2023-08-12T01:47:47.601Z,17.30
2023-08-12T01:50:14.679Z,17.30
2023-08-12T01:52:41.744Z,17.20
2023-08-12T01:55:09.347Z,17.20
2023-08-12T01:57:36.511Z,17.20
2023-08-12T02:00:03.908Z,17.30
2023-08-12T02:02:31.172Z,17.20
2023-08-12T02:04:58.381Z,17.20
2023-08-12T02:07:25.528Z,17.20
2023-08-12T02:09:52.590Z,17.10
2023-08-12T02:12:19.817Z,17.10
2023-08-12T02:14:46.938Z,17.20
2023-08-12T02:17:14.389Z,17.10
2023-08-12T02:19:41.625Z,17.20
2023-08-12T02:22:08.826Z,17.10
2023-08-12T02:24:35.845Z,17.20
2023-08-12T02:27:03.016Z,17.10
2023-08-12T02:29:30.051Z,17.10
2023-08-12T02:31:57.196Z,17.10
2023-08-12T02:34:24.354Z,17.10
2023-08-12T02:36:51.458Z,17.10
2023-08-12T02:39:18.613Z,17.00
2023-08-12T02:41:45.721Z,17.00
2023-08-12T02:44:12.912Z,17.00
2023-08-12T02:46:39.996Z,17.00
2023-08-12T02:49:07.002Z,17.00
2023-08-12T02:51:34.197Z,17.00
2023-08-12T02:54:01.329Z,17.00
2023-08-12T02:56:28.562Z,17.00
2023-08-12T02:58:55.686Z,16.90
2023-08-12T03:01:23.206Z,16.90
2023-08-12T03:03:50.308Z,16.80
2023-08-12T03:06:17.716Z,16.80
2023-08-12T03:08:44.878Z,16.80
2023-08-12T03:11:12.008Z,16.80
2023-08-12T03:13:39.074Z,16.80
2023-08-12T03:16:06.292Z,16.80
2023-08-12T03:18:33.518Z,16.80
2023-08-12T03:21:00.607Z,16.70
2023-08-12T03:23:27.796Z,16.70
2023-08-12T03:25:54.832Z,16.70
2023-08-12T03:28:22.074Z,16.60
2023-08-12T03:30:53.640Z,16.60
2023-08-12T03:33:21.089Z,16.60
2023-08-12T03:35:48.845Z,16.50
2023-08-12T03:38:17.107Z,16.40
2023-08-12T03:40:44.356Z,16.40
2023-08-12T03:43:11.656Z,16.40
2023-08-12T03:45:48.614Z,16.30
2023-08-12T03:48:15.674Z,16.30
2023-08-12T03:50:43.653Z,16.30
2023-08-12T03:53:10.890Z,16.40
2023-08-12T03:55:38.019Z,16.40
2023-08-12T03:58:05.444Z,16.40
2023-08-12T04:00:32.643Z,16.40
2023-08-12T04:02:59.953Z,16.40
2023-08-12T04:05:27.485Z,16.40
2023-08-12T04:07:54.626Z,16.40
2023-08-12T04:10:21.897Z,16.40
2023-08-12T04:12:49.143Z,16.50
2023-08-12T04:15:16.690Z,16.50
2023-08-12T04:17:43.963Z,16.60
2023-08-12T04:20:11.862Z,16.60
2023-08-12T04:22:39.033Z,16.70
2023-08-12T04:25:06.818Z,16.80
2023-08-12T04:27:33.975Z,16.90
2023-08-12T04:30:01.121Z,16.90
2023-08-12T04:32:28.312Z,17.10
2023-08-12T04:34:56.499Z,17.20
2023-08-12T04:37:25.418Z,17.30
2023-08-12T04:39:52.613Z,17.40
2023-08-12T04:42:20.016Z,17.40
2023-08-12T04:44:47.279Z,17.50
2023-08-12T04:47:14.956Z,17.60
2023-08-12T04:49:42.190Z,17.70
2023-08-12T04:52:09.634Z,17.80
2023-08-12T04:54:36.820Z,17.90
2023-08-12T04:57:03.920Z,18.00
2023-08-12T04:59:30.994Z,18.00
2023-08-12T05:02:04.887Z,18.20
2023-08-12T05:04:32.618Z,18.30
2023-08-12T05:06:59.686Z,18.40
2023-08-12T05:09:26.728Z,18.40
2023-08-12T05:11:53.850Z,18.50
2023-08-12T05:14:20.919Z,18.60
2023-08-12T05:16:48.200Z,18.80
2023-08-12T05:19:15.236Z,19.00
2023-08-12T05:21:42.465Z,19.10
2023-08-12T05:24:09.726Z,19.20
2023-08-12T05:26:37.007Z,19.20
2023-08-12T05:29:04.186Z,19.20
2023-08-12T05:31:31.397Z,19.10
2023-08-12T05:33:58.508Z,19.10
2023-08-12T05:36:25.590Z,19.00
2023-08-12T05:38:52.693Z,18.90
2023-08-12T05:41:19.828Z,18.90
2023-08-12T05:43:47.113Z,18.90
2023-08-12T05:46:14.177Z,18.80
2023-08-12T05:48:41.389Z,18.90
2023-08-12T05:51:08.460Z,18.90
2023-08-12T05:53:35.759Z,19.00
2023-08-12T05:56:02.867Z,19.00
2023-08-12T05:58:29.944Z,19.10
2023-08-12T06:00:57.083Z,19.20
2023-08-12T06:03:24.321Z,19.30
2023-08-12T06:05:51.415Z,19.30
2023-08-12T06:08:19.683Z,19.40
2023-08-12T06:10:46.773Z,19.60
2023-08-12T06:13:13.961Z,19.80
2023-08-12T06:15:41.149Z,20.00
2023-08-12T06:18:08.428Z,20.20
2023-08-12T06:20:35.520Z,20.60
2023-08-12T06:23:02.928Z,21.00
2023-08-12T06:25:30.026Z,21.30
2023-08-12T06:27:59.621Z,21.70
2023-08-12T06:30:26.783Z,22.20
2023-08-12T06:32:53.994Z,22.70
2023-08-12T06:35:21.158Z,22.90
2023-08-12T06:37:48.387Z,23.00
2023-08-12T06:40:15.817Z,22.90
2023-08-12T06:42:43.087Z,22.70
2023-08-12T06:45:10.824Z,22.60
2023-08-12T06:47:37.988Z,22.70
2023-08-12T06:50:05.418Z,22.60
2023-08-12T06:52:32.611Z,22.60
2023-08-12T06:54:59.900Z,22.60
2023-08-12T06:57:27.119Z,22.50
2023-08-12T06:59:54.366Z,22.60
2023-08-12T07:02:21.471Z,22.60
2023-08-12T07:04:48.710Z,22.50
2023-08-12T07:07:15.940Z,22.50
2023-08-12T07:09:43.124Z,22.40
2023-08-12T07:12:11.152Z,22.20
2023-08-12T07:14:38.604Z,22.10
2023-08-12T07:17:05.676Z,22.00
2023-08-12T07:19:32.851Z,22.10
2023-08-12T07:22:00.121Z,22.30
2023-08-12T07:24:27.191Z,22.30
2023-08-12T07:26:54.255Z,22.30
2023-08-12T07:29:22.012Z,22.20
2023-08-12T07:31:49.434Z,22.20
2023-08-12T07:34:16.529Z,22.30
2023-08-12T07:36:43.628Z,22.30
2023-08-12T07:39:10.953Z,22.40
2023-08-12T07:41:38.771Z,22.50
2023-08-12T07:44:06.605Z,22.70
2023-08-12T07:46:33.822Z,22.80
2023-08-12T07:49:00.977Z,22.70
2023-08-12T07:51:28.077Z,22.70
2023-08-12T07:53:55.254Z,22.70
2023-08-12T07:56:22.314Z,22.80
2023-08-12T07:58:49.499Z,22.90
2023-08-12T08:01:16.633Z,23.20
2023-08-12T08:03:43.909Z,23.40
2023-08-12T08:06:10.947Z,23.90
2023-08-12T08:08:38.006Z,24.70
2023-08-12T08:11:05.285Z,25.40
2023-08-12T08:13:32.456Z,25.90
2023-08-12T08:15:59.623Z,26.00
2023-08-12T08:18:26.898Z,26.20
2023-08-12T08:20:54.334Z,27.00
2023-08-12T08:23:21.484Z,27.10
2023-08-12T08:25:49.171Z,26.90
2023-08-12T08:28:16.230Z,26.80
2023-08-12T08:30:43.427Z,26.60
2023-08-12T08:33:10.691Z,26.40
2023-08-12T08:35:37.908Z,26.30
2023-08-12T08:38:05.641Z,26.20
2023-08-12T08:40:32.933Z,26.10
2023-08-12T08:43:04.999Z,26.20
2023-08-12T08:45:33.832Z,26.90
2023-08-12T08:48:03.949Z,27.70
2023-08-12T08:50:32.209Z,28.60
2023-08-12T08:53:01.088Z,29.40
2023-08-12T08:55:29.521Z,29.50
2023-08-12T09:00:29.434Z,29.50
2023-08-12T09:02:58.474Z,29.40
2023-08-12T09:05:26.873Z,29.20
2023-08-12T09:07:56.037Z,29.10
2023-08-12T09:10:26.391Z,29.40
2023-08-12T09:12:57.207Z,29.70
2023-08-12T09:15:25.267Z,29.90
2023-08-12T09:17:52.714Z,30.00
2023-08-12T09:20:19.914Z,29.90
2023-08-12T09:22:47.104Z,30.10
2023-08-12T09:25:14.271Z,30.40
2023-08-12T09:27:41.498Z,30.40
2023-08-12T09:30:09.828Z,30.20
2023-08-12T09:32:39.652Z,30.30
2023-08-12T09:35:14.296Z,30.60
2023-08-12T09:37:42.388Z,30.50
2023-08-12T09:40:10.385Z,30.60
2023-08-12T09:42:37.493Z,31.00
2023-08-12T09:45:04.896Z,31.30
2023-08-12T09:47:34.906Z,31.60
2023-08-12T09:50:03.101Z,31.90
2023-08-12T09:52:30.186Z,32.00
2023-08-12T09:54:59.195Z,32.00
2023-08-12T09:57:29.404Z,32.10
2023-08-12T09:59:59.031Z,32.30
2023-08-12T10:02:27.289Z,32.00
2023-08-12T10:04:57.699Z,31.10
2023-08-12T10:07:25.163Z,30.70
2023-08-12T10:09:52.367Z,30.30
2023-08-12T10:12:20.845Z,30.50
2023-08-12T10:14:48.876Z,31.10
2023-08-12T10:17:26.347Z,31.50
2023-08-12T10:19:59.196Z,31.50
2023-08-12T10:22:28.059Z,31.30
2023-08-12T10:24:55.291Z,31.60
2023-08-12T10:27:22.479Z,31.70
2023-08-12T10:29:50.356Z,31.70
2023-08-12T10:32:17.687Z,31.20
2023-08-12T10:34:44.789Z,31.30
2023-08-12T10:37:15.105Z,31.50
2023-08-12T10:39:42.369Z,31.90
2023-08-12T10:42:09.568Z,32.50
2023-08-12T10:44:44.377Z,32.80
2023-08-12T10:47:12.492Z,33.00
2023-08-12T10:49:43.724Z,32.80
2023-08-12T10:52:31.749Z,32.50
2023-08-12T10:55:18.772Z,32.30
2023-08-12T10:57:46.443Z,32.00
2023-08-12T11:00:36.446Z,32.00
2023-08-12T11:03:07.774Z,32.10
2023-08-12T11:05:39.134Z,32.20
2023-08-12T11:08:07.533Z,32.40
2023-08-12T11:10:36.421Z,32.20
2023-08-12T11:13:04.809Z,32.20
2023-08-12T11:15:48.794Z,32.10
2023-08-12T11:18:21.654Z,32.40
2023-08-12T11:20:50.149Z,32.70
2023-08-12T11:23:18.334Z,32.70
2023-08-12T11:25:46.501Z,32.80
2023-08-12T11:28:13.661Z,32.90
2023-08-12T11:30:43.872Z,32.60
2023-08-12T11:33:11.627Z,31.80
2023-08-12T11:35:39.456Z,31.70
2023-08-12T11:38:08.361Z,32.00
2023-08-12T11:40:35.572Z,32.40
2023-08-12T11:43:06.849Z,32.70
2023-08-12T11:45:34.636Z,32.70
2023-08-12T11:48:01.840Z,32.60
2023-08-12T11:50:29.056Z,32.50
2023-08-12T11:52:57.618Z,32.60
2023-08-12T11:55:25.814Z,32.60
2023-08-12T11:57:53.598Z,32.50
2023-08-12T12:00:21.343Z,32.20
2023-08-12T12:02:56.223Z,32.10
2023-08-12T12:05:32.451Z,32.20
2023-08-12T12:08:00.945Z,32.30
2023-08-12T12:10:34.457Z,32.30
2023-08-12T12:13:03.842Z,32.30
2023-08-12T12:15:31.276Z,32.30
2023-08-12T12:17:58.391Z,32.40
2023-08-12T12:20:26.733Z,32.40
2023-08-12T12:22:53.817Z,32.50
2023-08-12T12:25:21.030Z,32.60
2023-08-12T12:27:48.931Z,32.70
2023-08-12T12:30:17.985Z,32.90
2023-08-12T12:32:46.501Z,33.00
2023-08-12T12:35:14.027Z,32.90
2023-08-12T12:37:41.358Z,32.60
2023-08-12T12:40:09.293Z,32.30
2023-08-12T12:42:36.333Z,32.10
2023-08-12T12:45:10.224Z,32.00
2023-08-12T12:47:38.920Z,32.20
2023-08-12T12:50:06.480Z,32.10
2023-08-12T12:52:33.551Z,31.90
2023-08-12T12:55:01.803Z,31.90
2023-08-12T12:57:28.929Z,32.50
2023-08-12T12:59:56.107Z,32.80
2023-08-12T13:02:23.261Z,32.90
2023-08-12T13:04:51.184Z,32.60
2023-08-12T13:07:18.640Z,32.10
2023-08-12T13:09:45.799Z,31.80
2023-08-12T13:12:13.203Z,31.60
2023-08-12T13:14:40.401Z,31.40
2023-08-12T13:17:07.506Z,31.30
2023-08-12T13:19:34.780Z,31.20
2023-08-12T13:22:03.530Z,31.00
2023-08-12T13:24:30.632Z,30.80
2023-08-12T13:27:00.018Z,30.60
2023-08-12T13:29:27.696Z,30.50
2023-08-12T13:31:54.829Z,30.40
2023-08-12T13:34:21.878Z,30.20
2023-08-12T13:36:49.040Z,30.10
2023-08-12T13:39:16.817Z,29.90
2023-08-12T13:41:44.902Z,29.70
2023-08-12T13:44:11.934Z,29.40
2023-08-12T13:46:39.093Z,29.10
2023-08-12T13:49:06.799Z,28.70
2023-08-12T13:51:33.899Z,28.30
2023-08-12T13:54:01.044Z,28.00
2023-08-12T13:56:29.614Z,27.60
2023-08-12T13:58:57.827Z,27.30
2023-08-12T14:01:25.272Z,27.00
2023-08-12T14:03:52.445Z,26.60
2023-08-12T14:06:19.969Z,26.30
2023-08-12T14:08:47.185Z,26.00
2023-08-12T14:11:14.283Z,25.70
2023-08-12T14:13:41.368Z,25.50
2023-08-12T14:16:08.501Z,25.20
2023-08-12T14:18:35.614Z,24.90
2023-08-12T14:21:02.643Z,24.70
2023-08-12T14:23:29.846Z,24.60
2023-08-12T14:25:56.994Z,24.40
2023-08-12T14:28:24.317Z,24.20
2023-08-12T14:30:51.432Z,24.00
2023-08-12T14:33:18.620Z,23.90
2023-08-12T14:35:45.680Z,23.80
2023-08-12T14:38:14.022Z,23.60
2023-08-12T14:40:41.161Z,23.60
2023-08-12T14:43:08.406Z,23.50
2023-08-12T14:45:35.579Z,23.40
2023-08-12T14:48:03.301Z,23.20
2023-08-12T14:50:32.718Z,23.10
2023-08-12T14:53:01.196Z,23.10
2023-08-12T14:55:28.199Z,23.10
2023-08-12T14:57:55.313Z,23.10
2023-08-12T15:00:22.481Z,23.20
2023-08-12T15:02:49.727Z,23.10
2023-08-12T15:05:18.052Z,23.10
2023-08-12T15:07:45.474Z,23.20
2023-08-12T15:10:12.653Z,23.20
2023-08-12T15:12:39.767Z,23.40
2023-08-12T15:15:07.245Z,23.40
2023-08-12T15:17:34.591Z,23.60
2023-08-12T15:20:01.704Z,23.60
2023-08-12T15:22:29.203Z,23.60
2023-08-12T15:24:56.319Z,23.70
2023-08-12T15:27:23.477Z,23.80
2023-08-12T15:29:51.571Z,23.90
2023-08-12T15:32:18.771Z,24.00
2023-08-12T15:34:46.077Z,24.10
2023-08-12T15:37:13.984Z,24.40
2023-08-12T15:39:44.915Z,24.50
2023-08-12T15:42:12.021Z,24.90
2023-08-12T15:44:41.660Z,25.30
2023-08-12T15:47:10.206Z,25.70
2023-08-12T15:49:37.340Z,25.90
2023-08-12T15:52:04.730Z,26.10
2023-08-12T15:54:32.040Z,26.30
2023-08-12T15:56:59.345Z,26.30
2023-08-12T15:59:26.396Z,26.20
2023-08-12T16:01:53.539Z,26.10
2023-08-12T16:04:20.693Z,26.00
2023-08-12T16:06:48.035Z,25.80
2023-08-12T16:09:19.222Z,25.80
2023-08-12T16:11:47.019Z,26.00
2023-08-12T16:14:14.218Z,25.90
2023-08-12T16:16:41.441Z,25.80
2023-08-12T16:19:08.724Z,25.60
2023-08-12T16:21:35.811Z,25.40
2023-08-12T16:24:02.902Z,25.20
2023-08-12T16:26:29.997Z,25.00
2023-08-12T16:28:57.141Z,24.90
2023-08-12T16:31:24.958Z,24.70
2023-08-12T16:33:52.026Z,24.60
2023-08-12T16:36:19.332Z,24.50
2023-08-12T16:38:46.382Z,24.40
2023-08-12T16:41:14.003Z,24.30
2023-08-12T16:43:41.119Z,24.10
2023-08-12T16:46:08.248Z,23.90
2023-08-12T16:48:35.376Z,23.80
2023-08-12T16:51:02.815Z,23.80
2023-08-12T16:53:29.953Z,23.70
2023-08-12T16:55:57.406Z,23.60
2023-08-12T16:58:24.650Z,23.60
2023-08-12T17:00:51.787Z,23.60
2023-08-12T17:03:19.083Z,23.60
2023-08-12T17:05:46.274Z,23.60
2023-08-12T17:08:13.423Z,23.50
2023-08-12T17:10:42.241Z,23.50
2023-08-12T17:13:09.485Z,23.50
2023-08-12T17:15:36.951Z,23.40
2023-08-12T17:18:04.437Z,23.30
2023-08-12T17:20:31.649Z,23.30
2023-08-12T17:22:58.870Z,23.40
2023-08-12T17:25:25.928Z,23.30
2023-08-12T17:27:53.175Z,23.30
2023-08-12T17:30:20.492Z,23.30
2023-08-12T17:32:47.753Z,23.20
2023-08-12T17:35:14.990Z,23.00
2023-08-12T17:37:42.167Z,22.90
2023-08-12T17:40:12.037Z,22.80
2023-08-12T17:42:39.390Z,22.70
2023-08-12T17:45:07.174Z,22.60
2023-08-12T17:47:34.460Z,22.60
2023-08-12T17:50:01.616Z,22.50
2023-08-12T17:52:28.702Z,22.40
2023-08-12T17:54:56.049Z,22.40
2023-08-12T17:57:23.101Z,22.40
2023-08-12T17:59:50.250Z,22.40
2023-08-12T18:02:17.400Z,22.40
2023-08-12T18:04:44.590Z,22.50
2023-08-12T18:07:11.726Z,22.50
2023-08-12T18:09:38.883Z,22.40
2023-08-12T18:12:06.362Z,22.40
2023-08-12T18:14:33.559Z,22.30
2023-08-12T18:17:00.697Z,22.30
2023-08-12T18:19:27.937Z,22.40
2023-08-12T18:21:55.027Z,22.50
2023-08-12T18:24:22.250Z,22.50
2023-08-12T18:26:49.257Z,22.60
2023-08-12T18:29:16.376Z,22.60
2023-08-12T18:31:43.523Z,22.60
2023-08-12T18:34:10.688Z,22.60
2023-08-12T18:36:37.703Z,22.60
2023-08-12T18:39:04.993Z,22.60
2023-08-12T18:41:32.087Z,22.50
2023-08-12T18:43:59.342Z,22.40
2023-08-12T18:46:26.477Z,22.40
2023-08-12T18:48:53.618Z,22.30
2023-08-12T18:51:21.544Z,22.20
2023-08-12T18:53:48.669Z,22.10
2023-08-12T18:56:15.717Z,22.00
2023-08-12T18:58:43.419Z,21.90
2023-08-12T19:01:10.534Z,21.90
2023-08-12T19:03:38.061Z,21.80
2023-08-12T19:06:05.312Z,21.70
2023-08-12T19:08:32.413Z,21.60
2023-08-12T19:10:59.704Z,21.60
2023-08-12T19:13:27.774Z,21.50
2023-08-12T19:15:56.728Z,21.50
2023-08-12T19:18:24.865Z,21.50
2023-08-12T19:20:52.376Z,21.50
2023-08-12T19:23:20.816Z,21.40
2023-08-12T19:25:48.490Z,21.40
2023-08-12T19:28:16.918Z,21.30
2023-08-12T19:30:48.779Z,21.40
2023-08-12T19:33:16.342Z,21.40
2023-08-12T19:35:44.286Z,21.30
2023-08-12T19:38:15.307Z,21.30
2023-08-12T19:40:42.954Z,21.30
2023-08-12T19:43:10.723Z,21.30
2023-08-12T19:45:38.434Z,21.20
2023-08-12T19:48:05.856Z,21.20
2023-08-12T19:50:33.790Z,21.30
2023-08-12T19:53:01.513Z,21.30
2023-08-12T19:55:29.491Z,21.30
2023-08-12T19:57:57.108Z,21.30
2023-08-12T20:00:24.744Z,21.30
2023-08-12T20:02:52.163Z,21.30
2023-08-12T20:05:20.932Z,21.30
2023-08-12T20:07:49.935Z,21.20
2023-08-12T20:10:21.351Z,21.10
2023-08-12T20:12:48.982Z,21.10
2023-08-12T20:15:17.528Z,21.00
2023-08-12T20:17:45.524Z,20.90
2023-08-12T20:20:14.379Z,20.80
2023-08-12T20:22:54.607Z,20.80
2023-08-12T20:25:26.953Z,20.70
2023-08-12T20:27:55.051Z,20.60
2023-08-12T20:30:22.165Z,20.50
2023-08-12T20:32:52.694Z,20.50
2023-08-12T20:35:19.844Z,20.50
2023-08-12T20:37:47.294Z,20.50
2023-08-12T20:40:15.077Z,20.50
2023-08-12T20:42:42.263Z,20.30
2023-08-12T20:45:09.888Z,20.30
2023-08-12T20:47:37.727Z,20.30
2023-08-12T20:50:05.366Z,20.20
2023-08-12T20:52:34.548Z,20.30
2023-08-12T20:55:02.237Z,20.20
2023-08-12T20:57:29.586Z,20.20
2023-08-12T20:59:57.350Z,20.20
2023-08-12T21:02:24.879Z,20.30
2023-08-12T21:04:52.228Z,20.30
2023-08-12T21:07:19.959Z,20.30
2023-08-12T21:09:47.173Z,20.30
2023-08-12T21:12:15.210Z,20.30
2023-08-12T21:14:42.639Z,20.40
2023-08-12T21:17:09.719Z,20.40
2023-08-12T21:19:36.862Z,20.40
2023-08-12T21:22:03.926Z,20.40
2023-08-12T21:24:31.108Z,20.40
2023-08-12T21:26:58.195Z,20.30
2023-08-12T21:29:25.358Z,20.30
2023-08-12T21:31:52.791Z,20.30
2023-08-12T21:34:19.903Z,20.30
2023-08-12T21:36:47.051Z,20.30
2023-08-12T21:39:14.688Z,20.30
2023-08-12T21:41:41.834Z,20.40
2023-08-12T21:44:09.323Z,20.40
2023-08-12T21:46:36.442Z,20.40
2023-08-12T21:49:03.637Z,20.40
2023-08-12T21:51:31.232Z,20.30
2023-08-12T21:53:58.325Z,20.40
2023-08-12T21:56:25.494Z,20.40
2023-08-12T21:58:52.659Z,20.40
2023-08-12T22:01:19.838Z,20.30
2023-08-12T22:03:46.946Z,20.30
2023-08-12T22:06:15.287Z,20.30
2023-08-12T22:08:42.381Z,20.30
2023-08-12T22:11:09.562Z,20.30
2023-08-12T22:13:36.682Z,20.30
2023-08-12T22:16:04.777Z,20.30
2023-08-12T22:18:31.947Z,20.30
2023-08-12T22:20:59.084Z,20.20
2023-08-12T22:23:26.179Z,20.20
2023-08-12T22:25:53.255Z,20.10
2023-08-12T22:28:21.300Z,20.10
2023-08-12T22:30:49.071Z,20.10
2023-08-12T22:33:16.696Z,20.10
2023-08-12T22:35:44.077Z,20.10
2023-08-12T22:38:11.257Z,20.10
2023-08-12T22:40:38.409Z,20.10
2023-08-12T22:43:05.960Z,20.20
2023-08-12T22:45:40.147Z,20.10
2023-08-12T22:48:07.435Z,20.10
2023-08-12T22:50:34.552Z,20.00
2023-08-12T22:53:01.791Z,19.90
2023-08-12T22:55:28.870Z,19.80
2023-08-12T22:57:56.086Z,19.70
2023-08-12T23:00:23.282Z,19.70
2023-08-12T23:02:50.646Z,19.60
2023-08-12T23:05:17.875Z,19.50
2023-08-12T23:07:45.005Z,19.50
2023-08-12T23:10:12.492Z,19.40
2023-08-12T23:12:39.578Z,19.40
2023-08-12T23:15:08.205Z,19.40
2023-08-12T23:17:35.673Z,19.40
2023-08-12T23:20:03.341Z,19.40
2023-08-12T23:22:30.601Z,19.30
2023-08-12T23:24:57.877Z,19.30
2023-08-12T23:27:25.019Z,19.20
2023-08-12T23:29:52.145Z,19.20
2023-08-12T23:32:19.268Z,19.20
2023-08-12T23:34:46.502Z,19.20
2023-08-12T23:37:13.743Z,19.10
2023-08-12T23:39:40.924Z,19.10
2023-08-12T23:42:08.072Z,19.00
2023-08-12T23:44:35.243Z,19.00
2023-08-12T23:47:02.531Z,19.00
2023-08-12T23:49:29.670Z,19.00
2023-08-12T23:51:57.052Z,18.90
2023-08-12T23:54:24.174Z,18.90
2023-08-12T23:56:51.359Z,18.90
2023-08-12T23:59:18.579Z,18.80
